sensor_id;sensor_type;location;lat;lon;timestamp;P1;durP1;ratioP1;P2;durP2;ratioP2
54883;SDS011;40776;52.880;6.016;2023-06-19T00:00:09;8.55;;;6.82;;
54883;SDS011;40776;52.880;6.016;2023-06-19T00:02:42;8.05;;;6.78;;
54883;SDS011;40776;52.880;6.016;2023-06-19T00:05:09;10.05;;;7.43;;
54883;SDS011;40776;52.880;6.016;2023-06-19T00:07:38;9.18;;;6.30;;
54883;SDS011;40776;52.880;6.016;2023-06-19T00:10:05;8.80;;;6.15;;
54883;SDS011;40776;52.880;6.016;2023-06-19T00:12:31;10.10;;;6.38;;
54883;SDS011;40776;52.880;6.016;2023-06-19T00:14:57;9.68;;;7.07;;
54883;SDS011;40776;52.880;6.016;2023-06-19T00:17:23;9.02;;;6.60;;
54883;SDS011;40776;52.880;6.016;2023-06-19T00:19:51;9.18;;;6.28;;
54883;SDS011;40776;52.880;6.016;2023-06-19T00:22:17;8.98;;;7.53;;
54883;SDS011;40776;52.880;6.016;2023-06-19T00:24:43;11.77;;;7.38;;
54883;SDS011;40776;52.880;6.016;2023-06-19T00:27:09;10.25;;;6.78;;
54883;SDS011;40776;52.880;6.016;2023-06-19T00:29:36;11.85;;;7.22;;
54883;SDS011;40776;52.880;6.016;2023-06-19T00:32:02;8.38;;;5.97;;
54883;SDS011;40776;52.880;6.016;2023-06-19T00:34:28;10.65;;;7.75;;
54883;SDS011;40776;52.880;6.016;2023-06-19T00:36:54;8.48;;;6.60;;
54883;SDS011;40776;52.880;6.016;2023-06-19T00:39:24;9.25;;;6.82;;
54883;SDS011;40776;52.880;6.016;2023-06-19T00:41:51;8.98;;;7.03;;
54883;SDS011;40776;52.880;6.016;2023-06-19T00:44:17;7.57;;;6.68;;
54883;SDS011;40776;52.880;6.016;2023-06-19T00:46:43;12.35;;;6.85;;
54883;SDS011;40776;52.880;6.016;2023-06-19T00:49:10;9.35;;;6.65;;
54883;SDS011;40776;52.880;6.016;2023-06-19T00:51:36;10.18;;;6.88;;
54883;SDS011;40776;52.880;6.016;2023-06-19T00:54:02;9.00;;;6.47;;
54883;SDS011;40776;52.880;6.016;2023-06-19T00:56:28;9.48;;;6.63;;
54883;SDS011;40776;52.880;6.016;2023-06-19T00:58:54;7.75;;;6.07;;
54883;SDS011;40776;52.880;6.016;2023-06-19T01:01:21;9.48;;;6.88;;
54883;SDS011;40776;52.880;6.016;2023-06-19T01:03:49;8.45;;;6.60;;
54883;SDS011;40776;52.880;6.016;2023-06-19T01:06:22;8.30;;;6.45;;
54883;SDS011;40776;52.880;6.016;2023-06-19T01:08:52;10.05;;;7.78;;
54883;SDS011;40776;52.880;6.016;2023-06-19T01:11:21;9.32;;;6.40;;
54883;SDS011;40776;52.880;6.016;2023-06-19T01:13:57;11.27;;;6.85;;
54883;SDS011;40776;52.880;6.016;2023-06-19T01:16:25;10.65;;;8.23;;
54883;SDS011;40776;52.880;6.016;2023-06-19T01:18:52;7.70;;;6.35;;
54883;SDS011;40776;52.880;6.016;2023-06-19T01:21:18;8.40;;;6.57;;
54883;SDS011;40776;52.880;6.016;2023-06-19T01:23:45;8.43;;;6.63;;
54883;SDS011;40776;52.880;6.016;2023-06-19T01:26:12;10.00;;;6.43;;
54883;SDS011;40776;52.880;6.016;2023-06-19T01:28:39;10.77;;;6.90;;
54883;SDS011;40776;52.880;6.016;2023-06-19T01:31:08;8.30;;;6.70;;
54883;SDS011;40776;52.880;6.016;2023-06-19T01:33:36;10.27;;;6.85;;
54883;SDS011;40776;52.880;6.016;2023-06-19T01:36:03;7.88;;;6.45;;
54883;SDS011;40776;52.880;6.016;2023-06-19T01:38:30;13.10;;;6.72;;
54883;SDS011;40776;52.880;6.016;2023-06-19T01:40:56;9.40;;;6.53;;
54883;SDS011;40776;52.880;6.016;2023-06-19T01:43:23;8.88;;;6.57;;
54883;SDS011;40776;52.880;6.016;2023-06-19T01:45:50;9.82;;;7.30;;
54883;SDS011;40776;52.880;6.016;2023-06-19T01:48:17;7.72;;;6.88;;
54883;SDS011;40776;52.880;6.016;2023-06-19T01:50:46;9.93;;;6.32;;
54883;SDS011;40776;52.880;6.016;2023-06-19T01:53:13;9.20;;;6.40;;
54883;SDS011;40776;52.880;6.016;2023-06-19T01:55:39;8.00;;;6.10;;
54883;SDS011;40776;52.880;6.016;2023-06-19T01:58:05;9.13;;;6.70;;
54883;SDS011;40776;52.880;6.016;2023-06-19T02:00:32;9.48;;;6.90;;
54883;SDS011;40776;52.880;6.016;2023-06-19T02:03:09;8.30;;;6.18;;
54883;SDS011;40776;52.880;6.016;2023-06-19T02:05:35;7.78;;;5.90;;
54883;SDS011;40776;52.880;6.016;2023-06-19T02:08:04;9.98;;;6.88;;
54883;SDS011;40776;52.880;6.016;2023-06-19T02:10:30;11.63;;;6.93;;
54883;SDS011;40776;52.880;6.016;2023-06-19T02:12:56;10.95;;;7.75;;
54883;SDS011;40776;52.880;6.016;2023-06-19T02:15:22;11.40;;;7.57;;
54883;SDS011;40776;52.880;6.016;2023-06-19T02:17:48;10.45;;;7.18;;
54883;SDS011;40776;52.880;6.016;2023-06-19T02:20:20;10.18;;;7.15;;
54883;SDS011;40776;52.880;6.016;2023-06-19T02:22:46;7.55;;;6.15;;
54883;SDS011;40776;52.880;6.016;2023-06-19T02:25:12;9.63;;;6.85;;
54883;SDS011;40776;52.880;6.016;2023-06-19T02:27:38;9.90;;;7.78;;
54883;SDS011;40776;52.880;6.016;2023-06-19T02:30:05;11.27;;;7.60;;
54883;SDS011;40776;52.880;6.016;2023-06-19T02:32:31;9.93;;;7.18;;
54883;SDS011;40776;52.880;6.016;2023-06-19T02:34:57;12.80;;;7.95;;
54883;SDS011;40776;52.880;6.016;2023-06-19T02:37:23;8.15;;;6.82;;
54883;SDS011;40776;52.880;6.016;2023-06-19T02:39:49;8.27;;;7.05;;
54883;SDS011;40776;52.880;6.016;2023-06-19T02:42:15;11.27;;;8.23;;
54883;SDS011;40776;52.880;6.016;2023-06-19T02:44:41;11.88;;;7.70;;
54883;SDS011;40776;52.880;6.016;2023-06-19T02:47:08;8.98;;;7.20;;
54883;SDS011;40776;52.880;6.016;2023-06-19T02:49:34;8.68;;;6.90;;
54883;SDS011;40776;52.880;6.016;2023-06-19T02:52:00;9.95;;;7.65;;
54883;SDS011;40776;52.880;6.016;2023-06-19T02:54:26;9.88;;;7.57;;
54883;SDS011;40776;52.880;6.016;2023-06-19T02:56:52;13.07;;;7.20;;
54883;SDS011;40776;52.880;6.016;2023-06-19T02:59:18;9.18;;;6.78;;
54883;SDS011;40776;52.880;6.016;2023-06-19T03:01:44;7.35;;;6.15;;
54883;SDS011;40776;52.880;6.016;2023-06-19T03:04:10;11.25;;;6.90;;
54883;SDS011;40776;52.880;6.016;2023-06-19T03:06:37;8.38;;;5.82;;
54883;SDS011;40776;52.880;6.016;2023-06-19T03:09:05;8.93;;;6.63;;
54883;SDS011;40776;52.880;6.016;2023-06-19T03:11:37;9.68;;;6.25;;
54883;SDS011;40776;52.880;6.016;2023-06-19T03:14:03;8.07;;;5.88;;
54883;SDS011;40776;52.880;6.016;2023-06-19T03:16:32;6.95;;;5.47;;
54883;SDS011;40776;52.880;6.016;2023-06-19T03:18:58;7.85;;;5.45;;
54883;SDS011;40776;52.880;6.016;2023-06-19T03:21:24;7.05;;;4.90;;
54883;SDS011;40776;52.880;6.016;2023-06-19T03:23:50;7.35;;;4.43;;
54883;SDS011;40776;52.880;6.016;2023-06-19T03:26:17;6.57;;;4.40;;
54883;SDS011;40776;52.880;6.016;2023-06-19T03:28:43;6.22;;;3.90;;
54883;SDS011;40776;52.880;6.016;2023-06-19T03:31:11;6.35;;;3.45;;
54883;SDS011;40776;52.880;6.016;2023-06-19T03:33:37;6.28;;;3.47;;
54883;SDS011;40776;52.880;6.016;2023-06-19T03:36:03;7.28;;;4.07;;
54883;SDS011;40776;52.880;6.016;2023-06-19T03:38:29;6.72;;;4.05;;
54883;SDS011;40776;52.880;6.016;2023-06-19T03:40:56;6.72;;;3.78;;
54883;SDS011;40776;52.880;6.016;2023-06-19T03:43:22;5.25;;;3.40;;
54883;SDS011;40776;52.880;6.016;2023-06-19T03:45:48;8.00;;;3.40;;
54883;SDS011;40776;52.880;6.016;2023-06-19T03:48:15;8.32;;;3.70;;
54883;SDS011;40776;52.880;6.016;2023-06-19T03:50:41;5.85;;;2.92;;
54883;SDS011;40776;52.880;6.016;2023-06-19T03:53:07;4.90;;;3.03;;
54883;SDS011;40776;52.880;6.016;2023-06-19T03:55:34;3.88;;;2.55;;
54883;SDS011;40776;52.880;6.016;2023-06-19T03:58:00;13.05;;;3.78;;
54883;SDS011;40776;52.880;6.016;2023-06-19T04:00:26;6.28;;;2.60;;
54883;SDS011;40776;52.880;6.016;2023-06-19T04:02:52;4.35;;;2.70;;
54883;SDS011;40776;52.880;6.016;2023-06-19T04:05:18;7.35;;;2.55;;
54883;SDS011;40776;52.880;6.016;2023-06-19T04:07:45;4.10;;;2.40;;
54883;SDS011;40776;52.880;6.016;2023-06-19T04:10:11;5.72;;;2.53;;
54883;SDS011;40776;52.880;6.016;2023-06-19T04:12:37;4.22;;;2.83;;
54883;SDS011;40776;52.880;6.016;2023-06-19T04:15:05;4.32;;;2.60;;
54883;SDS011;40776;52.880;6.016;2023-06-19T04:17:31;5.18;;;3.10;;
54883;SDS011;40776;52.880;6.016;2023-06-19T04:19:57;4.60;;;2.80;;
54883;SDS011;40776;52.880;6.016;2023-06-19T04:22:23;5.22;;;3.58;;
54883;SDS011;40776;52.880;6.016;2023-06-19T04:24:49;5.47;;;3.08;;
54883;SDS011;40776;52.880;6.016;2023-06-19T04:27:15;4.18;;;3.15;;
54883;SDS011;40776;52.880;6.016;2023-06-19T04:29:41;7.28;;;3.65;;
54883;SDS011;40776;52.880;6.016;2023-06-19T04:32:07;7.55;;;3.63;;
54883;SDS011;40776;52.880;6.016;2023-06-19T04:34:38;5.78;;;3.60;;
54883;SDS011;40776;52.880;6.016;2023-06-19T04:37:04;4.22;;;3.35;;
54883;SDS011;40776;52.880;6.016;2023-06-19T04:39:30;7.65;;;3.65;;
54883;SDS011;40776;52.880;6.016;2023-06-19T04:41:56;5.20;;;3.70;;
54883;SDS011;40776;52.880;6.016;2023-06-19T04:44:22;6.05;;;3.53;;
54883;SDS011;40776;52.880;6.016;2023-06-19T04:46:48;6.18;;;3.75;;
54883;SDS011;40776;52.880;6.016;2023-06-19T04:49:14;5.10;;;3.55;;
54883;SDS011;40776;52.880;6.016;2023-06-19T04:51:40;7.07;;;4.50;;
54883;SDS011;40776;52.880;6.016;2023-06-19T04:54:07;6.03;;;3.78;;
54883;SDS011;40776;52.880;6.016;2023-06-19T04:56:33;5.25;;;3.97;;
54883;SDS011;40776;52.880;6.016;2023-06-19T04:58:59;7.45;;;4.53;;
54883;SDS011;40776;52.880;6.016;2023-06-19T05:01:26;7.35;;;4.25;;
54883;SDS011;40776;52.880;6.016;2023-06-19T05:03:54;6.22;;;4.75;;
54883;SDS011;40776;52.880;6.016;2023-06-19T05:06:23;7.88;;;5.40;;
54883;SDS011;40776;52.880;6.016;2023-06-19T05:08:49;8.05;;;5.20;;
54883;SDS011;40776;52.880;6.016;2023-06-19T05:11:15;11.90;;;6.57;;
54883;SDS011;40776;52.880;6.016;2023-06-19T05:13:42;9.02;;;6.78;;
54883;SDS011;40776;52.880;6.016;2023-06-19T05:16:08;9.57;;;7.13;;
54883;SDS011;40776;52.880;6.016;2023-06-19T05:18:34;11.20;;;7.30;;
54883;SDS011;40776;52.880;6.016;2023-06-19T05:21:00;9.55;;;7.05;;
54883;SDS011;40776;52.880;6.016;2023-06-19T05:23:26;9.80;;;7.97;;
54883;SDS011;40776;52.880;6.016;2023-06-19T05:25:52;9.35;;;7.30;;
54883;SDS011;40776;52.880;6.016;2023-06-19T05:28:18;10.90;;;8.90;;
54883;SDS011;40776;52.880;6.016;2023-06-19T05:30:44;13.80;;;9.20;;
54883;SDS011;40776;52.880;6.016;2023-06-19T05:33:10;12.45;;;9.65;;
54883;SDS011;40776;52.880;6.016;2023-06-19T05:35:41;14.55;;;9.82;;
54883;SDS011;40776;52.880;6.016;2023-06-19T05:38:08;11.38;;;9.55;;
54883;SDS011;40776;52.880;6.016;2023-06-19T05:40:34;13.63;;;9.35;;
54883;SDS011;40776;52.880;6.016;2023-06-19T05:43:00;11.85;;;9.40;;
54883;SDS011;40776;52.880;6.016;2023-06-19T05:45:26;14.77;;;9.23;;
54883;SDS011;40776;52.880;6.016;2023-06-19T05:47:52;10.40;;;8.30;;
54883;SDS011;40776;52.880;6.016;2023-06-19T05:50:18;9.02;;;6.95;;
54883;SDS011;40776;52.880;6.016;2023-06-19T05:52:44;9.02;;;5.82;;
54883;SDS011;40776;52.880;6.016;2023-06-19T05:55:10;6.50;;;5.03;;
54883;SDS011;40776;52.880;6.016;2023-06-19T05:57:37;7.90;;;6.68;;
54883;SDS011;40776;52.880;6.016;2023-06-19T06:00:03;7.15;;;5.80;;
54883;SDS011;40776;52.880;6.016;2023-06-19T06:02:31;8.95;;;6.20;;
54883;SDS011;40776;52.880;6.016;2023-06-19T06:04:57;8.73;;;7.07;;
54883;SDS011;40776;52.880;6.016;2023-06-19T06:07:23;7.80;;;6.50;;
54883;SDS011;40776;52.880;6.016;2023-06-19T06:09:49;8.55;;;7.50;;
54883;SDS011;40776;52.880;6.016;2023-06-19T06:12:15;10.98;;;8.75;;
54883;SDS011;40776;52.880;6.016;2023-06-19T06:14:42;10.88;;;8.75;;
54883;SDS011;40776;52.880;6.016;2023-06-19T06:17:09;11.80;;;8.25;;
54883;SDS011;40776;52.880;6.016;2023-06-19T06:19:35;10.48;;;9.32;;
54883;SDS011;40776;52.880;6.016;2023-06-19T06:22:02;13.63;;;9.63;;
54883;SDS011;40776;52.880;6.016;2023-06-19T06:24:28;12.48;;;10.23;;
54883;SDS011;40776;52.880;6.016;2023-06-19T06:26:54;13.05;;;10.68;;
54883;SDS011;40776;52.880;6.016;2023-06-19T06:29:20;13.65;;;11.63;;
54883;SDS011;40776;52.880;6.016;2023-06-19T06:31:46;15.80;;;11.85;;
54883;SDS011;40776;52.880;6.016;2023-06-19T06:34:12;15.57;;;12.70;;
54883;SDS011;40776;52.880;6.016;2023-06-19T06:36:39;17.90;;;13.23;;
54883;SDS011;40776;52.880;6.016;2023-06-19T06:39:05;19.05;;;14.35;;
54883;SDS011;40776;52.880;6.016;2023-06-19T06:41:31;19.92;;;15.70;;
54883;SDS011;40776;52.880;6.016;2023-06-19T06:43:57;20.73;;;16.00;;
54883;SDS011;40776;52.880;6.016;2023-06-19T06:46:23;22.95;;;16.38;;
54883;SDS011;40776;52.880;6.016;2023-06-19T06:48:49;21.33;;;15.32;;
54883;SDS011;40776;52.880;6.016;2023-06-19T06:51:15;21.58;;;13.93;;
54883;SDS011;40776;52.880;6.016;2023-06-19T06:53:41;20.98;;;15.35;;
54883;SDS011;40776;52.880;6.016;2023-06-19T06:56:08;22.15;;;16.20;;
54883;SDS011;40776;52.880;6.016;2023-06-19T06:58:34;20.30;;;14.07;;
54883;SDS011;40776;52.880;6.016;2023-06-19T07:01:00;21.33;;;15.27;;
54883;SDS011;40776;52.880;6.016;2023-06-19T07:03:26;17.52;;;12.38;;
54883;SDS011;40776;52.880;6.016;2023-06-19T07:05:56;19.65;;;13.25;;
54883;SDS011;40776;52.880;6.016;2023-06-19T07:08:23;21.02;;;13.18;;
54883;SDS011;40776;52.880;6.016;2023-06-19T07:10:49;19.83;;;13.70;;
54883;SDS011;40776;52.880;6.016;2023-06-19T07:13:15;18.30;;;13.43;;
54883;SDS011;40776;52.880;6.016;2023-06-19T07:15:41;18.02;;;12.10;;
54883;SDS011;40776;52.880;6.016;2023-06-19T07:18:07;19.77;;;14.10;;
54883;SDS011;40776;52.880;6.016;2023-06-19T07:20:33;19.00;;;13.63;;
54883;SDS011;40776;52.880;6.016;2023-06-19T07:22:59;15.52;;;11.63;;
54883;SDS011;40776;52.880;6.016;2023-06-19T07:25:25;17.25;;;12.00;;
54883;SDS011;40776;52.880;6.016;2023-06-19T07:27:52;17.27;;;12.20;;
54883;SDS011;40776;52.880;6.016;2023-06-19T07:30:18;17.67;;;11.75;;
54883;SDS011;40776;52.880;6.016;2023-06-19T07:32:44;14.98;;;10.88;;
54883;SDS011;40776;52.880;6.016;2023-06-19T07:35:10;15.20;;;11.63;;
54883;SDS011;40776;52.880;6.016;2023-06-19T07:37:36;12.82;;;10.15;;
54883;SDS011;40776;52.880;6.016;2023-06-19T07:40:02;14.30;;;10.23;;
54883;SDS011;40776;52.880;6.016;2023-06-19T07:42:29;13.68;;;9.25;;
54883;SDS011;40776;52.880;6.016;2023-06-19T07:44:55;12.85;;;8.82;;
54883;SDS011;40776;52.880;6.016;2023-06-19T07:47:21;11.02;;;8.10;;
54883;SDS011;40776;52.880;6.016;2023-06-19T07:49:47;16.10;;;9.30;;
54883;SDS011;40776;52.880;6.016;2023-06-19T07:52:13;11.77;;;8.15;;
54883;SDS011;40776;52.880;6.016;2023-06-19T07:54:57;12.05;;;8.13;;
54883;SDS011;40776;52.880;6.016;2023-06-19T07:57:24;10.02;;;5.28;;
54883;SDS011;40776;52.880;6.016;2023-06-19T07:59:50;7.50;;;4.70;;
54883;SDS011;40776;52.880;6.016;2023-06-19T08:02:17;8.35;;;4.82;;
54883;SDS011;40776;52.880;6.016;2023-06-19T08:04:43;9.98;;;4.40;;
54883;SDS011;40776;52.880;6.016;2023-06-19T08:07:09;7.55;;;3.72;;
54883;SDS011;40776;52.880;6.016;2023-06-19T08:09:35;7.07;;;4.07;;
54883;SDS011;40776;52.880;6.016;2023-06-19T08:12:01;6.22;;;2.97;;
54883;SDS011;40776;52.880;6.016;2023-06-19T08:14:28;4.95;;;3.20;;
54883;SDS011;40776;52.880;6.016;2023-06-19T08:16:54;4.28;;;2.90;;
54883;SDS011;40776;52.880;6.016;2023-06-19T08:19:20;5.38;;;3.50;;
54883;SDS011;40776;52.880;6.016;2023-06-19T08:21:46;7.38;;;4.18;;
54883;SDS011;40776;52.880;6.016;2023-06-19T08:24:12;6.22;;;4.43;;
54883;SDS011;40776;52.880;6.016;2023-06-19T08:26:38;10.82;;;4.60;;
54883;SDS011;40776;52.880;6.016;2023-06-19T08:29:04;6.95;;;5.13;;
54883;SDS011;40776;52.880;6.016;2023-06-19T08:31:30;9.63;;;6.05;;
54883;SDS011;40776;52.880;6.016;2023-06-19T08:33:56;10.60;;;5.90;;
54883;SDS011;40776;52.880;6.016;2023-06-19T08:36:22;9.18;;;6.47;;
54883;SDS011;40776;52.880;6.016;2023-06-19T08:38:49;11.20;;;7.10;;
54883;SDS011;40776;52.880;6.016;2023-06-19T08:41:17;14.10;;;7.95;;
54883;SDS011;40776;52.880;6.016;2023-06-19T08:43:44;14.93;;;8.20;;
54883;SDS011;40776;52.880;6.016;2023-06-19T08:46:11;13.85;;;8.25;;
54883;SDS011;40776;52.880;6.016;2023-06-19T08:48:38;11.02;;;7.88;;
54883;SDS011;40776;52.880;6.016;2023-06-19T08:51:04;17.80;;;9.93;;
54883;SDS011;40776;52.880;6.016;2023-06-19T08:53:34;15.35;;;10.10;;
54883;SDS011;40776;52.880;6.016;2023-06-19T08:58:29;15.98;;;10.80;;
54883;SDS011;40776;52.880;6.016;2023-06-19T09:00:57;15.00;;;10.07;;
54883;SDS011;40776;52.880;6.016;2023-06-19T09:03:24;16.05;;;11.20;;
54883;SDS011;40776;52.880;6.016;2023-06-19T09:05:50;15.60;;;10.90;;
54883;SDS011;40776;52.880;6.016;2023-06-19T09:08:20;18.95;;;11.60;;
54883;SDS011;40776;52.880;6.016;2023-06-19T09:10:59;15.65;;;11.38;;
54883;SDS011;40776;52.880;6.016;2023-06-19T09:13:25;19.08;;;12.00;;
54883;SDS011;40776;52.880;6.016;2023-06-19T09:15:57;16.45;;;11.85;;
54883;SDS011;40776;52.880;6.016;2023-06-19T09:18:24;15.95;;;11.18;;
54883;SDS011;40776;52.880;6.016;2023-06-19T09:20:52;16.27;;;12.98;;
54883;SDS011;40776;52.880;6.016;2023-06-19T09:23:19;16.15;;;12.60;;
54883;SDS011;40776;52.880;6.016;2023-06-19T09:28:25;15.43;;;10.25;;
54883;SDS011;40776;52.880;6.016;2023-06-19T09:30:54;13.88;;;8.85;;
54883;SDS011;40776;52.880;6.016;2023-06-19T09:33:22;9.65;;;7.03;;
54883;SDS011;40776;52.880;6.016;2023-06-19T09:35:53;14.18;;;8.15;;
54883;SDS011;40776;52.880;6.016;2023-06-19T09:38:20;8.93;;;7.72;;
54883;SDS011;40776;52.880;6.016;2023-06-19T09:40:47;12.20;;;8.10;;
54883;SDS011;40776;52.880;6.016;2023-06-19T09:46:54;10.45;;;7.93;;
54883;SDS011;40776;52.880;6.016;2023-06-19T09:49:21;11.57;;;8.05;;
54883;SDS011;40776;52.880;6.016;2023-06-19T09:51:48;13.02;;;8.10;;
54883;SDS011;40776;52.880;6.016;2023-06-19T09:54:16;11.48;;;8.15;;
54883;SDS011;40776;52.880;6.016;2023-06-19T09:56:42;12.82;;;7.78;;
54883;SDS011;40776;52.880;6.016;2023-06-19T09:59:09;10.63;;;7.05;;
54883;SDS011;40776;52.880;6.016;2023-06-19T10:01:35;11.32;;;7.63;;
54883;SDS011;40776;52.880;6.016;2023-06-19T10:04:06;13.40;;;7.90;;
54883;SDS011;40776;52.880;6.016;2023-06-19T10:06:32;11.35;;;7.57;;
54883;SDS011;40776;52.880;6.016;2023-06-19T10:09:08;23.83;;;10.18;;
54883;SDS011;40776;52.880;6.016;2023-06-19T10:11:50;14.95;;;8.55;;
54883;SDS011;40776;52.880;6.016;2023-06-19T10:14:17;13.63;;;8.45;;
54883;SDS011;40776;52.880;6.016;2023-06-19T10:16:44;11.57;;;8.18;;
54883;SDS011;40776;52.880;6.016;2023-06-19T10:19:13;12.32;;;8.52;;
54883;SDS011;40776;52.880;6.016;2023-06-19T10:21:46;12.07;;;8.93;;
54883;SDS011;40776;52.880;6.016;2023-06-19T10:24:13;13.65;;;9.07;;
54883;SDS011;40776;52.880;6.016;2023-06-19T10:26:43;12.32;;;8.88;;
54883;SDS011;40776;52.880;6.016;2023-06-19T10:29:16;12.57;;;8.70;;
54883;SDS011;40776;52.880;6.016;2023-06-19T10:31:42;15.20;;;9.00;;
54883;SDS011;40776;52.880;6.016;2023-06-19T10:34:09;11.82;;;9.20;;
54883;SDS011;40776;52.880;6.016;2023-06-19T10:36:35;15.30;;;9.60;;
54883;SDS011;40776;52.880;6.016;2023-06-19T10:39:01;13.88;;;10.25;;
54883;SDS011;40776;52.880;6.016;2023-06-19T10:41:27;14.80;;;11.60;;
54883;SDS011;40776;52.880;6.016;2023-06-19T10:46:29;15.13;;;11.52;;
54883;SDS011;40776;52.880;6.016;2023-06-19T10:48:55;15.38;;;10.90;;
54883;SDS011;40776;52.880;6.016;2023-06-19T10:53:53;21.23;;;12.10;;
54883;SDS011;40776;52.880;6.016;2023-06-19T10:56:20;14.63;;;11.63;;
54883;SDS011;40776;52.880;6.016;2023-06-19T10:58:47;18.75;;;12.63;;
54883;SDS011;40776;52.880;6.016;2023-06-19T11:01:13;17.80;;;13.00;;
54883;SDS011;40776;52.880;6.016;2023-06-19T11:03:39;16.35;;;11.52;;
54883;SDS011;40776;52.880;6.016;2023-06-19T11:06:06;16.55;;;11.55;;
54883;SDS011;40776;52.880;6.016;2023-06-19T11:08:31;16.95;;;11.18;;
54883;SDS011;40776;52.880;6.016;2023-06-19T11:10:57;15.38;;;10.45;;
54883;SDS011;40776;52.880;6.016;2023-06-19T11:13:23;14.55;;;10.20;;
54883;SDS011;40776;52.880;6.016;2023-06-19T11:15:50;14.32;;;9.55;;
54883;SDS011;40776;52.880;6.016;2023-06-19T11:18:16;14.55;;;9.80;;
54883;SDS011;40776;52.880;6.016;2023-06-19T11:20:52;12.57;;;8.60;;
54883;SDS011;40776;52.880;6.016;2023-06-19T11:23:28;12.57;;;8.50;;
54883;SDS011;40776;52.880;6.016;2023-06-19T11:26:01;15.00;;;8.93;;
54883;SDS011;40776;52.880;6.016;2023-06-19T11:28:28;13.93;;;9.70;;
54883;SDS011;40776;52.880;6.016;2023-06-19T11:30:58;12.10;;;8.40;;
54883;SDS011;40776;52.880;6.016;2023-06-19T11:33:28;12.63;;;8.05;;
54883;SDS011;40776;52.880;6.016;2023-06-19T11:35:58;10.60;;;6.40;;
54883;SDS011;40776;52.880;6.016;2023-06-19T11:38:26;12.02;;;7.20;;
54883;SDS011;40776;52.880;6.016;2023-06-19T11:40:54;11.05;;;7.45;;
54883;SDS011;40776;52.880;6.016;2023-06-19T11:43:27;13.15;;;8.27;;
54883;SDS011;40776;52.880;6.016;2023-06-19T11:46:05;16.27;;;9.85;;
54883;SDS011;40776;52.880;6.016;2023-06-19T11:48:35;13.07;;;9.15;;
54883;SDS011;40776;52.880;6.016;2023-06-19T11:51:02;13.80;;;8.37;;
54883;SDS011;40776;52.880;6.016;2023-06-19T11:53:28;13.30;;;8.60;;
54883;SDS011;40776;52.880;6.016;2023-06-19T11:55:54;13.02;;;9.27;;
54883;SDS011;40776;52.880;6.016;2023-06-19T11:58:21;11.15;;;9.55;;
54883;SDS011;40776;52.880;6.016;2023-06-19T12:00:48;13.02;;;9.25;;
54883;SDS011;40776;52.880;6.016;2023-06-19T12:03:14;12.40;;;9.57;;
54883;SDS011;40776;52.880;6.016;2023-06-19T12:05:40;17.77;;;8.73;;
54883;SDS011;40776;52.880;6.016;2023-06-19T12:08:06;12.93;;;8.95;;
54883;SDS011;40776;52.880;6.016;2023-06-19T12:10:35;13.65;;;8.93;;
54883;SDS011;40776;52.880;6.016;2023-06-19T12:13:01;14.57;;;9.65;;
54883;SDS011;40776;52.880;6.016;2023-06-19T12:15:27;13.50;;;10.25;;
54883;SDS011;40776;52.880;6.016;2023-06-19T12:17:53;16.63;;;11.32;;
54883;SDS011;40776;52.880;6.016;2023-06-19T12:20:22;18.03;;;9.20;;
54883;SDS011;40776;52.880;6.016;2023-06-19T12:22:49;15.13;;;9.63;;
54883;SDS011;40776;52.880;6.016;2023-06-19T12:25:15;15.10;;;8.60;;
54883;SDS011;40776;52.880;6.016;2023-06-19T12:27:41;17.13;;;9.70;;
54883;SDS011;40776;52.880;6.016;2023-06-19T12:30:07;12.35;;;8.43;;
54883;SDS011;40776;52.880;6.016;2023-06-19T12:32:33;16.77;;;9.40;;
54883;SDS011;40776;52.880;6.016;2023-06-19T12:34:59;13.20;;;7.78;;
54883;SDS011;40776;52.880;6.016;2023-06-19T12:37:25;12.60;;;8.70;;
54883;SDS011;40776;52.880;6.016;2023-06-19T12:39:51;14.57;;;8.90;;
54883;SDS011;40776;52.880;6.016;2023-06-19T12:42:17;15.00;;;9.02;;
54883;SDS011;40776;52.880;6.016;2023-06-19T12:44:43;13.73;;;9.13;;
54883;SDS011;40776;52.880;6.016;2023-06-19T12:47:10;13.57;;;8.55;;
54883;SDS011;40776;52.880;6.016;2023-06-19T12:49:36;12.77;;;8.30;;
54883;SDS011;40776;52.880;6.016;2023-06-19T12:52:02;15.15;;;9.13;;
54883;SDS011;40776;52.880;6.016;2023-06-19T12:54:28;15.25;;;9.52;;
54883;SDS011;40776;52.880;6.016;2023-06-19T12:56:54;15.70;;;8.23;;
54883;SDS011;40776;52.880;6.016;2023-06-19T12:59:20;11.05;;;7.72;;
54883;SDS011;40776;52.880;6.016;2023-06-19T13:01:46;15.48;;;8.35;;
54883;SDS011;40776;52.880;6.016;2023-06-19T13:04:13;10.55;;;7.05;;
54883;SDS011;40776;52.880;6.016;2023-06-19T13:06:39;13.68;;;9.15;;
54883;SDS011;40776;52.880;6.016;2023-06-19T13:09:05;11.88;;;7.47;;
54883;SDS011;40776;52.880;6.016;2023-06-19T13:11:32;12.90;;;7.82;;
54883;SDS011;40776;52.880;6.016;2023-06-19T13:13:59;14.43;;;9.13;;
54883;SDS011;40776;52.880;6.016;2023-06-19T13:16:25;15.48;;;8.43;;
54883;SDS011;40776;52.880;6.016;2023-06-19T13:18:51;12.05;;;6.53;;
54883;SDS011;40776;52.880;6.016;2023-06-19T13:21:17;11.25;;;7.50;;
54883;SDS011;40776;52.880;6.016;2023-06-19T13:23:44;11.73;;;6.13;;
54883;SDS011;40776;52.880;6.016;2023-06-19T13:26:10;12.63;;;8.07;;
54883;SDS011;40776;52.880;6.016;2023-06-19T13:28:36;8.80;;;6.38;;
54883;SDS011;40776;52.880;6.016;2023-06-19T13:31:02;12.95;;;8.13;;
54883;SDS011;40776;52.880;6.016;2023-06-19T13:33:28;10.55;;;7.40;;
54883;SDS011;40776;52.880;6.016;2023-06-19T13:35:54;9.70;;;5.82;;
54883;SDS011;40776;52.880;6.016;2023-06-19T13:38:20;10.20;;;6.00;;
54883;SDS011;40776;52.880;6.016;2023-06-19T13:40:46;10.32;;;6.75;;
54883;SDS011;40776;52.880;6.016;2023-06-19T13:43:12;9.90;;;6.75;;
54883;SDS011;40776;52.880;6.016;2023-06-19T13:45:38;11.13;;;7.68;;
54883;SDS011;40776;52.880;6.016;2023-06-19T13:48:07;10.13;;;6.43;;
54883;SDS011;40776;52.880;6.016;2023-06-19T13:50:33;9.27;;;5.85;;
54883;SDS011;40776;52.880;6.016;2023-06-19T13:52:59;8.35;;;6.20;;
54883;SDS011;40776;52.880;6.016;2023-06-19T13:55:26;15.52;;;7.15;;
54883;SDS011;40776;52.880;6.016;2023-06-19T13:57:52;13.63;;;7.28;;
54883;SDS011;40776;52.880;6.016;2023-06-19T14:00:18;10.90;;;7.03;;
54883;SDS011;40776;52.880;6.016;2023-06-19T14:02:44;10.43;;;5.57;;
54883;SDS011;40776;52.880;6.016;2023-06-19T14:05:10;11.18;;;6.03;;
54883;SDS011;40776;52.880;6.016;2023-06-19T14:07:40;9.88;;;6.50;;
54883;SDS011;40776;52.880;6.016;2023-06-19T14:12:34;10.07;;;5.45;;
54883;SDS011;40776;52.880;6.016;2023-06-19T14:15:00;10.43;;;6.57;;
54883;SDS011;40776;52.880;6.016;2023-06-19T14:17:27;10.30;;;6.10;;
54883;SDS011;40776;52.880;6.016;2023-06-19T14:19:53;10.38;;;5.50;;
54883;SDS011;40776;52.880;6.016;2023-06-19T14:22:20;9.20;;;5.68;;
54883;SDS011;40776;52.880;6.016;2023-06-19T14:24:46;11.02;;;5.97;;
54883;SDS011;40776;52.880;6.016;2023-06-19T14:27:12;9.93;;;6.63;;
54883;SDS011;40776;52.880;6.016;2023-06-19T14:29:37;9.02;;;5.85;;
54883;SDS011;40776;52.880;6.016;2023-06-19T14:32:03;9.15;;;5.97;;
54883;SDS011;40776;52.880;6.016;2023-06-19T14:34:29;8.32;;;5.55;;
54883;SDS011;40776;52.880;6.016;2023-06-19T14:36:54;10.57;;;5.90;;
54883;SDS011;40776;52.880;6.016;2023-06-19T14:39:20;8.48;;;5.68;;
54883;SDS011;40776;52.880;6.016;2023-06-19T14:41:46;8.75;;;5.50;;
54883;SDS011;40776;52.880;6.016;2023-06-19T14:44:11;9.90;;;6.22;;
54883;SDS011;40776;52.880;6.016;2023-06-19T14:46:37;9.48;;;6.72;;
54883;SDS011;40776;52.880;6.016;2023-06-19T14:49:09;9.13;;;5.15;;
54883;SDS011;40776;52.880;6.016;2023-06-19T14:51:36;9.30;;;5.53;;